sensor_id;sensor_type;location;lat;lon;timestamp;P1;durP1;ratioP1;P2;durP2;ratioP2
38715;SDS011;24833;49.324;8.694;2023-09-19T00:00:59;0.57;;;0.57;;
38715;SDS011;24833;49.324;8.694;2023-09-19T00:03:27;1.25;;;0.90;;
38715;SDS011;24833;49.324;8.694;2023-09-19T00:05:55;1.70;;;0.50;;
38715;SDS011;24833;49.324;8.694;2023-09-19T00:08:24;1.30;;;0.80;;
38715;SDS011;24833;49.324;8.694;2023-09-19T00:10:52;1.58;;;0.80;;
38715;SDS011;24833;49.324;8.694;2023-09-19T00:13:21;3.25;;;1.00;;
38715;SDS011;24833;49.324;8.694;2023-09-19T00:15:48;1.27;;;0.65;;
38715;SDS011;24833;49.324;8.694;2023-09-19T00:18:17;0.80;;;0.80;;
38715;SDS011;24833;49.324;8.694;2023-09-19T00:20:48;1.00;;;0.90;;
38715;SDS011;24833;49.324;8.694;2023-09-19T00:23:17;1.25;;;0.70;;
38715;SDS011;24833;49.324;8.694;2023-09-19T00:25:46;2.63;;;0.90;;
38715;SDS011;24833;49.324;8.694;2023-09-19T00:28:13;0.88;;;0.68;;
38715;SDS011;24833;49.324;8.694;2023-09-19T00:30:42;3.00;;;0.73;;
38715;SDS011;24833;49.324;8.694;2023-09-19T00:33:10;0.93;;;0.70;;
38715;SDS011;24833;49.324;8.694;2023-09-19T00:35:46;2.25;;;0.93;;
38715;SDS011;24833;49.324;8.694;2023-09-19T00:38:15;1.13;;;0.60;;
38715;SDS011;24833;49.324;8.694;2023-09-19T00:40:47;0.75;;;0.60;;
38715;SDS011;24833;49.324;8.694;2023-09-19T00:43:15;2.15;;;0.95;;
38715;SDS011;24833;49.324;8.694;2023-09-19T00:45:43;1.63;;;0.82;;
38715;SDS011;24833;49.324;8.694;2023-09-19T00:48:17;2.38;;;1.23;;
38715;SDS011;24833;49.324;8.694;2023-09-19T00:50:47;1.42;;;0.93;;
38715;SDS011;24833;49.324;8.694;2023-09-19T00:53:17;1.30;;;0.80;;
38715;SDS011;24833;49.324;8.694;2023-09-19T00:55:49;1.35;;;0.82;;
38715;SDS011;24833;49.324;8.694;2023-09-19T00:58:20;5.35;;;0.90;;
38715;SDS011;24833;49.324;8.694;2023-09-19T01:00:50;1.98;;;0.90;;
38715;SDS011;24833;49.324;8.694;2023-09-19T01:03:19;1.20;;;0.88;;
38715;SDS011;24833;49.324;8.694;2023-09-19T01:05:49;1.92;;;1.08;;
38715;SDS011;24833;49.324;8.694;2023-09-19T01:08:17;0.95;;;0.63;;
38715;SDS011;24833;49.324;8.694;2023-09-19T01:10:55;1.10;;;0.85;;
38715;SDS011;24833;49.324;8.694;2023-09-19T01:13:39;0.80;;;0.70;;
38715;SDS011;24833;49.324;8.694;2023-09-19T01:16:48;1.13;;;0.90;;
38715;SDS011;24833;49.324;8.694;2023-09-19T01:19:33;0.73;;;0.70;;
38715;SDS011;24833;49.324;8.694;2023-09-19T01:31:03;2.42;;;1.05;;
38715;SDS011;24833;49.324;8.694;2023-09-19T01:33:54;3.35;;;0.95;;
38715;SDS011;24833;49.324;8.694;2023-09-19T01:36:35;1.05;;;0.90;;
38715;SDS011;24833;49.324;8.694;2023-09-19T01:39:06;1.42;;;0.60;;
38715;SDS011;24833;49.324;8.694;2023-09-19T01:44:30;0.88;;;0.85;;
38715;SDS011;24833;49.324;8.694;2023-09-19T01:47:27;3.92;;;1.00;;
38715;SDS011;24833;49.324;8.694;2023-09-19T01:50:05;1.50;;;0.68;;
38715;SDS011;24833;49.324;8.694;2023-09-19T01:53:01;0.60;;;0.60;;
38715;SDS011;24833;49.324;8.694;2023-09-19T01:55:46;0.65;;;0.65;;
38715;SDS011;24833;49.324;8.694;2023-09-19T01:58:27;0.80;;;0.63;;
38715;SDS011;24833;49.324;8.694;2023-09-19T02:01:02;1.42;;;0.85;;
38715;SDS011;24833;49.324;8.694;2023-09-19T02:03:33;2.13;;;0.80;;
38715;SDS011;24833;49.324;8.694;2023-09-19T02:06:02;1.27;;;0.80;;
38715;SDS011;24833;49.324;8.694;2023-09-19T02:08:31;1.33;;;0.82;;
38715;SDS011;24833;49.324;8.694;2023-09-19T02:11:00;1.85;;;0.80;;
38715;SDS011;24833;49.324;8.694;2023-09-19T02:13:27;2.25;;;0.70;;
38715;SDS011;24833;49.324;8.694;2023-09-19T02:15:54;1.67;;;0.88;;
38715;SDS011;24833;49.324;8.694;2023-09-19T02:18:22;1.50;;;0.80;;
38715;SDS011;24833;49.324;8.694;2023-09-19T02:20:49;2.95;;;0.90;;
38715;SDS011;24833;49.324;8.694;2023-09-19T02:23:17;1.98;;;0.90;;
38715;SDS011;24833;49.324;8.694;2023-09-19T02:25:51;1.10;;;0.70;;
38715;SDS011;24833;49.324;8.694;2023-09-19T02:28:20;1.20;;;0.75;;
38715;SDS011;24833;49.324;8.694;2023-09-19T02:30:48;1.02;;;0.68;;
38715;SDS011;24833;49.324;8.694;2023-09-19T02:33:16;1.00;;;0.82;;
38715;SDS011;24833;49.324;8.694;2023-09-19T02:35:44;1.50;;;0.80;;
38715;SDS011;24833;49.324;8.694;2023-09-19T02:38:11;1.00;;;0.52;;
38715;SDS011;24833;49.324;8.694;2023-09-19T02:40:38;2.63;;;0.65;;
38715;SDS011;24833;49.324;8.694;2023-09-19T02:43:06;0.65;;;0.65;;
38715;SDS011;24833;49.324;8.694;2023-09-19T02:45:35;3.10;;;1.00;;
38715;SDS011;24833;49.324;8.694;2023-09-19T02:48:02;3.15;;;0.80;;
38715;SDS011;24833;49.324;8.694;2023-09-19T02:50:30;5.82;;;1.02;;
38715;SDS011;24833;49.324;8.694;2023-09-19T02:52:57;1.15;;;0.80;;
38715;SDS011;24833;49.324;8.694;2023-09-19T02:55:25;1.20;;;0.85;;
38715;SDS011;24833;49.324;8.694;2023-09-19T02:57:53;1.73;;;0.88;;
38715;SDS011;24833;49.324;8.694;2023-09-19T03:00:24;1.67;;;0.77;;
38715;SDS011;24833;49.324;8.694;2023-09-19T03:02:52;1.10;;;0.80;;
38715;SDS011;24833;49.324;8.694;2023-09-19T03:05:22;0.98;;;0.77;;
38715;SDS011;24833;49.324;8.694;2023-09-19T03:07:50;0.80;;;0.75;;
38715;SDS011;24833;49.324;8.694;2023-09-19T03:10:19;0.95;;;0.80;;
38715;SDS011;24833;49.324;8.694;2023-09-19T03:12:47;1.10;;;0.85;;
38715;SDS011;24833;49.324;8.694;2023-09-19T03:15:16;1.98;;;1.00;;
38715;SDS011;24833;49.324;8.694;2023-09-19T03:17:45;2.25;;;1.02;;
38715;SDS011;24833;49.324;8.694;2023-09-19T03:20:18;0.77;;;0.70;;
38715;SDS011;24833;49.324;8.694;2023-09-19T03:22:46;1.25;;;0.70;;
38715;SDS011;24833;49.324;8.694;2023-09-19T03:25:15;2.78;;;1.05;;
38715;SDS011;24833;49.324;8.694;2023-09-19T03:27:47;0.98;;;0.73;;
38715;SDS011;24833;49.324;8.694;2023-09-19T03:30:14;0.93;;;0.85;;
38715;SDS011;24833;49.324;8.694;2023-09-19T03:32:45;1.85;;;0.90;;
38715;SDS011;24833;49.324;8.694;2023-09-19T03:35:13;2.75;;;0.82;;
38715;SDS011;24833;49.324;8.694;2023-09-19T03:37:41;2.30;;;0.75;;
38715;SDS011;24833;49.324;8.694;2023-09-19T03:40:10;3.00;;;0.90;;
38715;SDS011;24833;49.324;8.694;2023-09-19T03:42:38;1.25;;;1.00;;
38715;SDS011;24833;49.324;8.694;2023-09-19T03:45:11;1.30;;;0.80;;
38715;SDS011;24833;49.324;8.694;2023-09-19T03:47:44;1.13;;;0.75;;
38715;SDS011;24833;49.324;8.694;2023-09-19T03:50:16;2.97;;;1.02;;
38715;SDS011;24833;49.324;8.694;2023-09-19T03:52:44;2.70;;;0.85;;
38715;SDS011;24833;49.324;8.694;2023-09-19T03:55:11;0.77;;;0.63;;
38715;SDS011;24833;49.324;8.694;2023-09-19T03:57:39;2.17;;;0.98;;
38715;SDS011;24833;49.324;8.694;2023-09-19T04:00:08;1.15;;;0.90;;
38715;SDS011;24833;49.324;8.694;2023-09-19T04:02:39;1.73;;;1.10;;
38715;SDS011;24833;49.324;8.694;2023-09-19T04:05:07;1.77;;;1.08;;
38715;SDS011;24833;49.324;8.694;2023-09-19T04:07:35;1.20;;;0.82;;
38715;SDS011;24833;49.324;8.694;2023-09-19T04:10:02;3.60;;;1.00;;
38715;SDS011;24833;49.324;8.694;2023-09-19T04:12:30;1.35;;;0.77;;
38715;SDS011;24833;49.324;8.694;2023-09-19T04:14:58;1.88;;;1.00;;
38715;SDS011;24833;49.324;8.694;2023-09-19T04:17:25;0.90;;;0.80;;
38715;SDS011;24833;49.324;8.694;2023-09-19T04:19:53;1.98;;;1.10;;
38715;SDS011;24833;49.324;8.694;2023-09-19T04:22:20;2.25;;;1.00;;
38715;SDS011;24833;49.324;8.694;2023-09-19T04:24:47;2.50;;;1.10;;
38715;SDS011;24833;49.324;8.694;2023-09-19T04:27:14;1.00;;;0.95;;
38715;SDS011;24833;49.324;8.694;2023-09-19T04:29:41;2.42;;;0.90;;
38715;SDS011;24833;49.324;8.694;2023-09-19T04:32:08;2.90;;;0.90;;
38715;SDS011;24833;49.324;8.694;2023-09-19T04:34:36;1.48;;;0.95;;
38715;SDS011;24833;49.324;8.694;2023-09-19T04:37:05;1.33;;;0.82;;
38715;SDS011;24833;49.324;8.694;2023-09-19T04:39:32;0.80;;;0.80;;
38715;SDS011;24833;49.324;8.694;2023-09-19T04:42:00;1.30;;;1.00;;
38715;SDS011;24833;49.324;8.694;2023-09-19T04:44:27;2.35;;;1.00;;
38715;SDS011;24833;49.324;8.694;2023-09-19T04:46:54;2.70;;;0.90;;
38715;SDS011;24833;49.324;8.694;2023-09-19T04:49:22;1.13;;;0.77;;
38715;SDS011;24833;49.324;8.694;2023-09-19T04:51:49;4.90;;;1.20;;
38715;SDS011;24833;49.324;8.694;2023-09-19T04:54:16;0.90;;;0.90;;
38715;SDS011;24833;49.324;8.694;2023-09-19T04:56:44;0.73;;;0.63;;
38715;SDS011;24833;49.324;8.694;2023-09-19T04:59:11;2.70;;;1.20;;
38715;SDS011;24833;49.324;8.694;2023-09-19T05:01:38;1.50;;;1.00;;
38715;SDS011;24833;49.324;8.694;2023-09-19T05:04:06;1.63;;;1.05;;
38715;SDS011;24833;49.324;8.694;2023-09-19T05:06:32;2.00;;;1.10;;
38715;SDS011;24833;49.324;8.694;2023-09-19T05:09:00;4.40;;;1.27;;
38715;SDS011;24833;49.324;8.694;2023-09-19T05:11:27;2.33;;;1.25;;
38715;SDS011;24833;49.324;8.694;2023-09-19T05:13:56;3.17;;;1.33;;
38715;SDS011;24833;49.324;8.694;2023-09-19T05:16:23;1.48;;;0.98;;
38715;SDS011;24833;49.324;8.694;2023-09-19T05:18:51;1.40;;;1.30;;
38715;SDS011;24833;49.324;8.694;2023-09-19T05:21:18;5.40;;;1.40;;
38715;SDS011;24833;49.324;8.694;2023-09-19T05:23:45;1.40;;;1.00;;
38715;SDS011;24833;49.324;8.694;2023-09-19T05:26:13;2.88;;;1.75;;
38715;SDS011;24833;49.324;8.694;2023-09-19T05:28:42;2.67;;;1.45;;
38715;SDS011;24833;49.324;8.694;2023-09-19T05:31:09;1.95;;;1.13;;
38715;SDS011;24833;49.324;8.694;2023-09-19T05:33:36;3.30;;;1.23;;
38715;SDS011;24833;49.324;8.694;2023-09-19T05:36:04;3.05;;;1.58;;
38715;SDS011;24833;49.324;8.694;2023-09-19T05:38:31;2.70;;;1.63;;
38715;SDS011;24833;49.324;8.694;2023-09-19T05:40:59;2.00;;;1.20;;
38715;SDS011;24833;49.324;8.694;2023-09-19T05:43:26;2.35;;;1.00;;
38715;SDS011;24833;49.324;8.694;2023-09-19T05:45:53;2.22;;;1.40;;
38715;SDS011;24833;49.324;8.694;2023-09-19T05:48:22;1.27;;;1.17;;
38715;SDS011;24833;49.324;8.694;2023-09-19T05:50:49;1.38;;;1.02;;
38715;SDS011;24833;49.324;8.694;2023-09-19T05:53:16;2.20;;;1.10;;
38715;SDS011;24833;49.324;8.694;2023-09-19T05:55:44;2.67;;;1.30;;
38715;SDS011;24833;49.324;8.694;2023-09-19T05:58:12;3.15;;;1.20;;
38715;SDS011;24833;49.324;8.694;2023-09-19T06:00:40;2.38;;;1.30;;
38715;SDS011;24833;49.324;8.694;2023-09-19T06:03:09;6.63;;;1.73;;
38715;SDS011;24833;49.324;8.694;2023-09-19T06:05:38;2.58;;;1.45;;
38715;SDS011;24833;49.324;8.694;2023-09-19T06:08:07;2.17;;;1.52;;
38715;SDS011;24833;49.324;8.694;2023-09-19T06:10:35;2.60;;;1.40;;
38715;SDS011;24833;49.324;8.694;2023-09-19T06:13:03;3.28;;;1.23;;
38715;SDS011;24833;49.324;8.694;2023-09-19T06:15:32;2.00;;;1.30;;
38715;SDS011;24833;49.324;8.694;2023-09-19T06:17:59;2.45;;;1.23;;
38715;SDS011;24833;49.324;8.694;2023-09-19T06:20:28;1.80;;;1.40;;
38715;SDS011;24833;49.324;8.694;2023-09-19T06:22:56;1.77;;;1.33;;
38715;SDS011;24833;49.324;8.694;2023-09-19T06:25:23;2.80;;;1.40;;
38715;SDS011;24833;49.324;8.694;2023-09-19T06:27:51;3.90;;;1.40;;
38715;SDS011;24833;49.324;8.694;2023-09-19T06:30:21;1.50;;;1.33;;
38715;SDS011;24833;49.324;8.694;2023-09-19T06:32:57;5.90;;;1.50;;
38715;SDS011;24833;49.324;8.694;2023-09-19T06:35:25;2.85;;;1.70;;
38715;SDS011;24833;49.324;8.694;2023-09-19T06:37:56;2.65;;;1.20;;
38715;SDS011;24833;49.324;8.694;2023-09-19T06:40:25;2.33;;;1.17;;
38715;SDS011;24833;49.324;8.694;2023-09-19T06:42:52;2.78;;;1.10;;
38715;SDS011;24833;49.324;8.694;2023-09-19T06:45:20;2.38;;;1.25;;
38715;SDS011;24833;49.324;8.694;2023-09-19T06:47:49;2.85;;;1.20;;
38715;SDS011;24833;49.324;8.694;2023-09-19T06:50:19;1.40;;;1.00;;
38715;SDS011;24833;49.324;8.694;2023-09-19T06:52:52;1.95;;;1.15;;
38715;SDS011;24833;49.324;8.694;2023-09-19T06:55:21;3.67;;;1.30;;
38715;SDS011;24833;49.324;8.694;2023-09-19T06:57:54;3.53;;;1.40;;
38715;SDS011;24833;49.324;8.694;2023-09-19T07:00:21;4.20;;;1.13;;
38715;SDS011;24833;49.324;8.694;2023-09-19T07:08:01;2.20;;;1.10;;
38715;SDS011;24833;49.324;8.694;2023-09-19T07:10:29;4.07;;;1.70;;
38715;SDS011;24833;49.324;8.694;2023-09-19T07:13:03;2.10;;;1.25;;
38715;SDS011;24833;49.324;8.694;2023-09-19T07:15:37;3.63;;;1.40;;
38715;SDS011;24833;49.324;8.694;2023-09-19T07:18:08;4.05;;;1.48;;
38715;SDS011;24833;49.324;8.694;2023-09-19T07:20:38;2.25;;;1.70;;
38715;SDS011;24833;49.324;8.694;2023-09-19T07:23:05;2.40;;;1.40;;
38715;SDS011;24833;49.324;8.694;2023-09-19T07:25:32;3.63;;;1.42;;
38715;SDS011;24833;49.324;8.694;2023-09-19T07:28:02;2.00;;;1.27;;
38715;SDS011;24833;49.324;8.694;2023-09-19T07:30:29;2.75;;;1.20;;
38715;SDS011;24833;49.324;8.694;2023-09-19T07:32:56;2.20;;;1.40;;
38715;SDS011;24833;49.324;8.694;2023-09-19T07:35:24;1.35;;;1.00;;
38715;SDS011;24833;49.324;8.694;2023-09-19T07:37:52;2.25;;;1.20;;
38715;SDS011;24833;49.324;8.694;2023-09-19T07:40:19;2.47;;;1.25;;
38715;SDS011;24833;49.324;8.694;2023-09-19T07:42:50;2.40;;;1.30;;
38715;SDS011;24833;49.324;8.694;2023-09-19T07:45:17;2.88;;;1.17;;
38715;SDS011;24833;49.324;8.694;2023-09-19T07:47:45;4.30;;;1.25;;
38715;SDS011;24833;49.324;8.694;2023-09-19T07:50:13;3.42;;;1.20;;
38715;SDS011;24833;49.324;8.694;2023-09-19T07:52:47;2.05;;;0.90;;
38715;SDS011;24833;49.324;8.694;2023-09-19T07:55:19;2.25;;;1.30;;
38715;SDS011;24833;49.324;8.694;2023-09-19T07:57:50;1.70;;;0.85;;
38715;SDS011;24833;49.324;8.694;2023-09-19T08:00:20;1.90;;;1.02;;
38715;SDS011;24833;49.324;8.694;2023-09-19T08:02:47;1.00;;;0.88;;
38715;SDS011;24833;49.324;8.694;2023-09-19T08:05:24;1.38;;;0.90;;
38715;SDS011;24833;49.324;8.694;2023-09-19T08:07:51;2.83;;;1.00;;
38715;SDS011;24833;49.324;8.694;2023-09-19T08:10:19;1.75;;;0.95;;
38715;SDS011;24833;49.324;8.694;2023-09-19T08:12:48;1.98;;;0.88;;
38715;SDS011;24833;49.324;8.694;2023-09-19T08:15:16;2.20;;;1.30;;
38715;SDS011;24833;49.324;8.694;2023-09-19T08:17:47;1.17;;;0.90;;
38715;SDS011;24833;49.324;8.694;2023-09-19T08:20:16;2.30;;;1.10;;
38715;SDS011;24833;49.324;8.694;2023-09-19T08:22:51;3.78;;;1.40;;
38715;SDS011;24833;49.324;8.694;2023-09-19T08:25:21;1.65;;;1.00;;
38715;SDS011;24833;49.324;8.694;2023-09-19T08:27:49;2.92;;;0.95;;
38715;SDS011;24833;49.324;8.694;2023-09-19T08:30:18;5.28;;;1.00;;
38715;SDS011;24833;49.324;8.694;2023-09-19T08:32:51;2.00;;;0.95;;
38715;SDS011;24833;49.324;8.694;2023-09-19T08:35:25;1.95;;;1.00;;
38715;SDS011;24833;49.324;8.694;2023-09-19T08:37:53;6.05;;;1.38;;
38715;SDS011;24833;49.324;8.694;2023-09-19T08:40:22;2.35;;;0.98;;
38715;SDS011;24833;49.324;8.694;2023-09-19T08:42:50;4.15;;;1.00;;
38715;SDS011;24833;49.324;8.694;2023-09-19T08:45:22;3.05;;;1.23;;
38715;SDS011;24833;49.324;8.694;2023-09-19T08:47:56;2.75;;;1.10;;
38715;SDS011;24833;49.324;8.694;2023-09-19T08:50:53;1.75;;;1.35;;
38715;SDS011;24833;49.324;8.694;2023-09-19T08:56:18;3.17;;;1.08;;
38715;SDS011;24833;49.324;8.694;2023-09-19T08:58:47;4.15;;;1.10;;
38715;SDS011;24833;49.324;8.694;2023-09-19T09:01:27;1.55;;;1.10;;
38715;SDS011;24833;49.324;8.694;2023-09-19T09:03:55;2.95;;;0.90;;
38715;SDS011;24833;49.324;8.694;2023-09-19T09:06:23;4.07;;;1.17;;
38715;SDS011;24833;49.324;8.694;2023-09-19T09:08:52;4.45;;;0.85;;
38715;SDS011;24833;49.324;8.694;2023-09-19T09:11:19;2.95;;;1.08;;
38715;SDS011;24833;49.324;8.694;2023-09-19T09:13:47;2.67;;;0.90;;
38715;SDS011;24833;49.324;8.694;2023-09-19T09:16:16;2.55;;;1.00;;
38715;SDS011;24833;49.324;8.694;2023-09-19T09:18:46;2.53;;;1.05;;
38715;SDS011;24833;49.324;8.694;2023-09-19T09:21:21;2.65;;;0.88;;
38715;SDS011;24833;49.324;8.694;2023-09-19T09:23:51;3.35;;;1.40;;
38715;SDS011;24833;49.324;8.694;2023-09-19T09:27:02;1.88;;;1.20;;
38715;SDS011;24833;49.324;8.694;2023-09-19T09:29:09;2.78;;;0.95;;
38715;SDS011;24833;49.324;8.694;2023-09-19T09:31:36;1.70;;;1.00;;
38715;SDS011;24833;49.324;8.694;2023-09-19T09:34:04;2.28;;;1.20;;
38715;SDS011;24833;49.324;8.694;2023-09-19T09:36:38;1.92;;;0.85;;
38715;SDS011;24833;49.324;8.694;2023-09-19T09:39:08;2.72;;;1.00;;
38715;SDS011;24833;49.324;8.694;2023-09-19T09:41:45;4.50;;;1.50;;
38715;SDS011;24833;49.324;8.694;2023-09-19T09:44:13;2.63;;;1.17;;
38715;SDS011;24833;49.324;8.694;2023-09-19T09:46:45;2.63;;;1.27;;
38715;SDS011;24833;49.324;8.694;2023-09-19T09:49:24;2.40;;;1.10;;
38715;SDS011;24833;49.324;8.694;2023-09-19T09:52:04;4.07;;;0.90;;
38715;SDS011;24833;49.324;8.694;2023-09-19T09:55:04;3.97;;;1.17;;
38715;SDS011;24833;49.324;8.694;2023-09-19T09:57:33;2.90;;;1.02;;
38715;SDS011;24833;49.324;8.694;2023-09-19T10:00:02;3.65;;;1.25;;
38715;SDS011;24833;49.324;8.694;2023-09-19T10:02:38;2.03;;;1.08;;
38715;SDS011;24833;49.324;8.694;2023-09-19T10:05:15;4.82;;;1.02;;
38715;SDS011;24833;49.324;8.694;2023-09-19T10:07:54;2.60;;;1.20;;
38715;SDS011;24833;49.324;8.694;2023-09-19T10:10:31;1.75;;;1.00;;
38715;SDS011;24833;49.324;8.694;2023-09-19T10:13:10;1.83;;;1.10;;
38715;SDS011;24833;49.324;8.694;2023-09-19T10:15:40;1.77;;;0.98;;
38715;SDS011;24833;49.324;8.694;2023-09-19T10:18:26;3.75;;;1.35;;
38715;SDS011;24833;49.324;8.694;2023-09-19T10:20:56;2.35;;;0.90;;
38715;SDS011;24833;49.324;8.694;2023-09-19T10:23:24;2.00;;;1.00;;
38715;SDS011;24833;49.324;8.694;2023-09-19T10:25:56;4.10;;;1.25;;
38715;SDS011;24833;49.324;8.694;2023-09-19T10:28:25;4.18;;;1.40;;
38715;SDS011;24833;49.324;8.694;2023-09-19T10:30:57;2.42;;;1.20;;
38715;SDS011;24833;49.324;8.694;2023-09-19T10:33:26;5.05;;;1.30;;
38715;SDS011;24833;49.324;8.694;2023-09-19T10:35:59;2.33;;;1.10;;
38715;SDS011;24833;49.324;8.694;2023-09-19T10:38:27;1.70;;;1.00;;
38715;SDS011;24833;49.324;8.694;2023-09-19T10:40:56;3.38;;;1.10;;
38715;SDS011;24833;49.324;8.694;2023-09-19T10:43:31;4.15;;;1.25;;
38715;SDS011;24833;49.324;8.694;2023-09-19T10:46:03;2.25;;;1.15;;
38715;SDS011;24833;49.324;8.694;2023-09-19T10:48:36;4.55;;;1.30;;
38715;SDS011;24833;49.324;8.694;2023-09-19T10:51:12;2.67;;;1.13;;
38715;SDS011;24833;49.324;8.694;2023-09-19T10:53:47;1.13;;;1.00;;
38715;SDS011;24833;49.324;8.694;2023-09-19T10:56:32;2.33;;;0.82;;
38715;SDS011;24833;49.324;8.694;2023-09-19T10:59:08;2.10;;;0.73;;
38715;SDS011;24833;49.324;8.694;2023-09-19T11:04:29;1.95;;;1.10;;
38715;SDS011;24833;49.324;8.694;2023-09-19T11:07:04;2.90;;;1.17;;
38715;SDS011;24833;49.324;8.694;2023-09-19T11:09:50;4.47;;;1.15;;
38715;SDS011;24833;49.324;8.694;2023-09-19T11:16:02;3.92;;;1.20;;
38715;SDS011;24833;49.324;8.694;2023-09-19T11:26:51;1.75;;;0.88;;
38715;SDS011;24833;49.324;8.694;2023-09-19T11:29:34;2.70;;;0.95;;
38715;SDS011;24833;49.324;8.694;2023-09-19T11:32:02;2.15;;;1.25;;
38715;SDS011;24833;49.324;8.694;2023-09-19T11:40:04;4.65;;;0.85;;
38715;SDS011;24833;49.324;8.694;2023-09-19T11:42:47;1.88;;;0.90;;
38715;SDS011;24833;49.324;8.694;2023-09-19T11:46:06;1.35;;;0.70;;
38715;SDS011;24833;49.324;8.694;2023-09-19T11:48:23;0.68;;;0.60;;
38715;SDS011;24833;49.324;8.694;2023-09-19T11:50:53;1.10;;;1.00;;
38715;SDS011;24833;49.324;8.694;2023-09-19T11:53:21;1.60;;;0.75;;
38715;SDS011;24833;49.324;8.694;2023-09-19T11:55:50;2.00;;;0.85;;
38715;SDS011;24833;49.324;8.694;2023-09-19T11:58:19;4.05;;;1.15;;
38715;SDS011;24833;49.324;8.694;2023-09-19T12:00:46;3.72;;;1.10;;
38715;SDS011;24833;49.324;8.694;2023-09-19T12:03:25;1.42;;;0.82;;
38715;SDS011;24833;49.324;8.694;2023-09-19T12:05:58;2.95;;;0.95;;
38715;SDS011;24833;49.324;8.694;2023-09-19T12:08:26;2.92;;;1.15;;
38715;SDS011;24833;49.324;8.694;2023-09-19T12:10:54;2.45;;;1.05;;
38715;SDS011;24833;49.324;8.694;2023-09-19T12:13:22;2.83;;;1.15;;
38715;SDS011;24833;49.324;8.694;2023-09-19T12:15:49;2.33;;;1.00;;
38715;SDS011;24833;49.324;8.694;2023-09-19T12:18:26;1.70;;;1.08;;
38715;SDS011;24833;49.324;8.694;2023-09-19T12:23:25;2.22;;;1.02;;
38715;SDS011;24833;49.324;8.694;2023-09-19T12:25:52;2.00;;;1.05;;
38715;SDS011;24833;49.324;8.694;2023-09-19T12:28:24;2.42;;;1.23;;
38715;SDS011;24833;49.324;8.694;2023-09-19T12:30:54;2.90;;;0.90;;
38715;SDS011;24833;49.324;8.694;2023-09-19T12:33:22;1.75;;;1.05;;
38715;SDS011;24833;49.324;8.694;2023-09-19T12:35:52;3.55;;;1.23;;
38715;SDS011;24833;49.324;8.694;2023-09-19T12:38:26;2.20;;;1.20;;
38715;SDS011;24833;49.324;8.694;2023-09-19T12:40:55;1.90;;;1.05;;
38715;SDS011;24833;49.324;8.694;2023-09-19T12:43:25;1.13;;;0.80;;
38715;SDS011;24833;49.324;8.694;2023-09-19T12:45:55;1.92;;;1.10;;
38715;SDS011;24833;49.324;8.694;2023-09-19T12:48:26;2.38;;;1.08;;
38715;SDS011;24833;49.324;8.694;2023-09-19T12:53:40;1.25;;;0.80;;
38715;SDS011;24833;49.324;8.694;2023-09-19T12:56:11;1.02;;;0.90;;
38715;SDS011;24833;49.324;8.694;2023-09-19T12:59:04;2.15;;;1.08;;
38715;SDS011;24833;49.324;8.694;2023-09-19T13:01:31;1.38;;;0.98;;
38715;SDS011;24833;49.324;8.694;2023-09-19T13:06:47;2.15;;;1.17;;
38715;SDS011;24833;49.324;8.694;2023-09-19T13:09:20;2.63;;;0.93;;
38715;SDS011;24833;49.324;8.694;2023-09-19T13:11:51;2.58;;;1.10;;
38715;SDS011;24833;49.324;8.694;2023-09-19T13:14:21;4.07;;;1.20;;
38715;SDS011;24833;49.324;8.694;2023-09-19T13:16:57;2.15;;;1.00;;
38715;SDS011;24833;49.324;8.694;2023-09-19T13:19:45;1.75;;;0.90;;
38715;SDS011;24833;49.324;8.694;2023-09-19T13:22:40;0.70;;;0.70;;
38715;SDS011;24833;49.324;8.694;2023-09-19T13:25:16;1.33;;;0.70;;
38715;SDS011;24833;49.324;8.694;2023-09-19T13:27:46;4.20;;;1.20;;
38715;SDS011;24833;49.324;8.694;2023-09-19T13:30:19;1.35;;;0.80;;
38715;SDS011;24833;49.324;8.694;2023-09-19T13:32:47;2.08;;;0.90;;
38715;SDS011;24833;49.324;8.694;2023-09-19T13:35:15;5.05;;;0.88;;
38715;SDS011;24833;49.324;8.694;2023-09-19T13:37:42;1.40;;;0.80;;
38715;SDS011;24833;49.324;8.694;2023-09-19T13:40:16;2.38;;;1.15;;
38715;SDS011;24833;49.324;8.694;2023-09-19T13:42:44;1.65;;;0.80;;
38715;SDS011;24833;49.324;8.694;2023-09-19T13:45:11;2.15;;;0.90;;
38715;SDS011;24833;49.324;8.694;2023-09-19T13:47:43;1.38;;;1.00;;
38715;SDS011;24833;49.324;8.694;2023-09-19T13:50:11;1.80;;;0.70;;
38715;SDS011;24833;49.324;8.694;2023-09-19T13:52:38;2.58;;;0.93;;
38715;SDS011;24833;49.324;8.694;2023-09-19T13:55:06;1.75;;;0.93;;
38715;SDS011;24833;49.324;8.694;2023-09-19T13:57:33;1.60;;;1.10;;
38715;SDS011;24833;49.324;8.694;2023-09-19T14:00:00;2.08;;;0.80;;
38715;SDS011;24833;49.324;8.694;2023-09-19T14:02:37;3.22;;;1.17;;
38715;SDS011;24833;49.324;8.694;2023-09-19T14:05:06;1.35;;;0.85;;
38715;SDS011;24833;49.324;8.694;2023-09-19T14:07:33;2.17;;;1.05;;
38715;SDS011;24833;49.324;8.694;2023-09-19T14:10:00;1.33;;;0.77;;
38715;SDS011;24833;49.324;8.694;2023-09-19T14:12:27;3.55;;;1.38;;
38715;SDS011;24833;49.324;8.694;2023-09-19T14:14:54;1.13;;;0.82;;
38715;SDS011;24833;49.324;8.694;2023-09-19T14:17:22;0.93;;;0.77;;
38715;SDS011;24833;49.324;8.694;2023-09-19T14:19:50;0.98;;;0.70;;
38715;SDS011;24833;49.324;8.694;2023-09-19T14:22:17;1.55;;;0.82;;
38715;SDS011;24833;49.324;8.694;2023-09-19T14:24:44;2.25;;;0.70;;
38715;SDS011;24833;49.324;8.694;2023-09-19T14:27:11;2.20;;;0.80;;
38715;SDS011;24833;49.324;8.694;2023-09-19T14:29:38;1.98;;;0.90;;
38715;SDS011;24833;49.324;8.694;2023-09-19T14:32:05;1.40;;;0.60;;
38715;SDS011;24833;49.324;8.694;2023-09-19T14:34:32;2.97;;;0.90;;
38715;SDS011;24833;49.324;8.694;2023-09-19T14:37:00;1.65;;;0.88;;
38715;SDS011;24833;49.324;8.694;2023-09-19T14:39:27;1.58;;;0.85;;
38715;SDS011;24833;49.324;8.694;2023-09-19T14:41:54;0.95;;;0.63;;
38715;SDS011;24833;49.324;8.694;2023-09-19T14:44:22;1.10;;;0.60;;
38715;SDS011;24833;49.324;8.694;2023-09-19T14:46:49;2.00;;;0.90;;
38715;SDS011;24833;49.324;8.694;2023-09-19T14:49:16;1.63;;;0.77;;
38715;SDS011;24833;49.324;8.694;2023-09-19T14:51:43;1.58;;;0.68;;
38715;SDS011;24833;49.324;8.694;2023-09-19T14:54:11;1.73;;;0.77;;
38715;SDS011;24833;49.324;8.694;2023-09-19T14:56:38;4.10;;;0.70;;
38715;SDS011;24833;49.324;8.694;2023-09-19T14:59:08;2.28;;;0.77;;
38715;SDS011;24833;49.324;8.694;2023-09-19T15:01:37;0.93;;;0.60;;
38715;SDS011;24833;49.324;8.694;2023-09-19T15:04:05;0.77;;;0.52;;
38715;SDS011;24833;49.324;8.694;2023-09-19T15:06:32;1.38;;;0.80;;
38715;SDS011;24833;49.324;8.694;2023-09-19T15:09:00;1.25;;;0.60;;
38715;SDS011;24833;49.324;8.694;2023-09-19T15:11:27;0.80;;;0.65;;
38715;SDS011;24833;49.324;8.694;2023-09-19T15:13:55;1.23;;;0.70;;
38715;SDS011;24833;49.324;8.694;2023-09-19T15:16:22;2.35;;;0.75;;
38715;SDS011;24833;49.324;8.694;2023-09-19T15:18:49;0.95;;;0.63;;
38715;SDS011;24833;49.324;8.694;2023-09-19T15:21:18;2.35;;;0.60;;
38715;SDS011;24833;49.324;8.694;2023-09-19T15:23:45;3.67;;;0.70;;
38715;SDS011;24833;49.324;8.694;2023-09-19T15:26:14;0.73;;;0.60;;
38715;SDS011;24833;49.324;8.694;2023-09-19T15:28:47;4.22;;;0.77;;
38715;SDS011;24833;49.324;8.694;2023-09-19T15:31:15;1.17;;;0.50;;
38715;SDS011;24833;49.324;8.694;2023-09-19T15:33:42;1.20;;;0.70;;
38715;SDS011;24833;49.324;8.694;2023-09-19T15:36:10;1.45;;;0.50;;
38715;SDS011;24833;49.324;8.694;2023-09-19T15:41:31;0.70;;;0.70;;
38715;SDS011;24833;49.324;8.694;2023-09-19T15:44:04;1.05;;;0.70;;
38715;SDS011;24833;49.324;8.694;2023-09-19T15:46:37;2.03;;;0.70;;
38715;SDS011;24833;49.324;8.694;2023-09-19T15:49:05;1.20;;;0.70;;
38715;SDS011;24833;49.324;8.694;2023-09-19T15:51:34;1.52;;;0.60;;
38715;SDS011;24833;49.324;8.694;2023-09-19T15:54:06;1.15;;;0.50;;
38715;SDS011;24833;49.324;8.694;2023-09-19T15:56:43;2.70;;;0.73;;
38715;SDS011;24833;49.324;8.694;2023-09-19T15:59:12;1.00;;;0.80;;